Dades meteomassalio
Diari Summary for Juny 5, 2017 Units:  Metric    English   Both
« Previous Day
Next Day »
Diari Semanal Mensual Anual Personalitzat
  Maxima: Minima: Mijana:
Temperatura: -17.8 °C -10.7 °C -8.2 °C
Rosada: -17.8 °C -11.9 °C -11.1 °C
Humitat: Humidity % 45 % 73 %
Velocitat del vent: 0 km/h 0 km/h 19.6 km/h
Racha vent: 0 km/h - -
Vent:- - WNW
Pressio: 0 hPa 34293.4 hPa -
Pluja: 7.62 mm    
Historical Graphs
 
 
Tabular Data for Juny 5, 2017
Time Temperature Dew Point Pressure Wind Wind Speed Wind Gust Humidity Rainfall Rate (Hourly) solar Conditions
-17.8 °C -17.8 °C 0 hPa Calm     Humidity % 0 mm SolarRadiationWatts/m^2 W/m2 Conditions
00:00 -9.8 °C -10.4 °C 34428.8 hPa NW 26.9 km/h 26.9 km/h 93 % 0 mm 0.0 W/m2 RA
00:05 -9.8 °C -10.4 °C 34418.7 hPa WNW 26.9 km/h 26.9 km/h 93 % 0 mm 0.0 W/m2 CLR
00:10 -9.8 °C -10.4 °C 34418.7 hPa NW 35.7 km/h 35.7 km/h 93 % 0 mm 0.0 W/m2 CLR
00:15 -9.8 °C -10.4 °C 34418.7 hPa NW 35.7 km/h 35.7 km/h 93 % 0 mm 0.0 W/m2 CLR
00:20 -9.8 °C -10.4 °C 34418.7 hPa NW 35.7 km/h 35.7 km/h 93 % 0 mm 0.0 W/m2 CLR
00:25 -9.8 °C -10.4 °C 34405.1 hPa NW 44.7 km/h 44.7 km/h 93 % 0 mm 0.0 W/m2 CLR
00:30 -9.8 °C -10.4 °C 34418.7 hPa WNW 35.7 km/h 35.7 km/h 93 % 0 mm 0.0 W/m2 CLR
00:35 -9.8 °C -10.4 °C 34418.7 hPa NNW 47.6 km/h 47.6 km/h 93 % 0 mm 0.0 W/m2 CLR
00:40 -9.9 °C -10.5 °C 34418.7 hPa NNW 50.7 km/h 50.7 km/h 93 % 0 mm 0.0 W/m2 CLR
00:45 -9.9 °C -10.6 °C 34418.7 hPa WNW 44.7 km/h 44.7 km/h 92 % 0 mm 0.0 W/m2 CLR
00:50 -9.9 °C -10.7 °C 34428.8 hPa WNW 38.8 km/h 38.8 km/h 92 % 0 mm 0.0 W/m2 CLR
00:55 -10 °C -10.7 °C 34418.7 hPa NNW 50.7 km/h 50.7 km/h 92 % 0 mm 0.0 W/m2 CLR
01:00 -10 °C -10.7 °C 34428.8 hPa NW 35.7 km/h 35.7 km/h 92 % 0 mm 0.0 W/m2 CLR
01:05 -10.1 °C -10.7 °C 34428.8 hPa WNW 36.2 km/h 36.2 km/h 92 % 0 mm 0.0 W/m2 CLR
01:10 -10.1 °C -10.8 °C 34428.8 hPa WNW 47.6 km/h 47.6 km/h 92 % 0 mm 0.0 W/m2 CLR
01:15 -10.1 °C -10.8 °C 34418.7 hPa WNW 41.7 km/h 41.7 km/h 92 % 0 mm 0.0 W/m2 CLR
01:20 -10.2 °C -10.9 °C 34418.7 hPa WNW 32.8 km/h 32.8 km/h 92 % 0 mm 0.0 W/m2 CLR
01:25 -10.2 °C -11 °C 34418.7 hPa WNW 35.7 km/h 35.7 km/h 91 % 0 mm 0.0 W/m2 CLR
01:30 -10.2 °C -11 °C 34418.7 hPa WNW 44.7 km/h 44.7 km/h 91 % 0 mm 0.0 W/m2 CLR
01:35 -10.2 °C -11.1 °C 34418.7 hPa NW 38.8 km/h 38.8 km/h 91 % 0 mm 0.0 W/m2 CLR
01:40 -10.3 °C -11.1 °C 34418.7 hPa WNW 44.7 km/h 44.7 km/h 91 % 0 mm 0.0 W/m2 CLR
01:42 -10.3 °C -11.1 °C 34418.7 hPa NNW 36.2 km/h 36.2 km/h 91 % 0 mm 0.0 W/m2 CLR
01:47 -10.3 °C -11.1 °C 34418.7 hPa NW 47.6 km/h 47.6 km/h 91 % 0 mm 0.0 W/m2 CLR
01:52 -10.3 °C -11.2 °C 34418.7 hPa WNW 44.7 km/h 44.7 km/h 91 % 0 mm 0.0 W/m2 CLR
01:53 -10.3 °C -11.2 °C 34418.7 hPa NNW 44.1 km/h 44.1 km/h 91 % 0 mm 0.0 W/m2 CLR
01:58 -10.3 °C -11.2 °C 34418.7 hPa NW 44.7 km/h 44.7 km/h 91 % 0 mm 0.0 W/m2 CLR
02:03 -10.3 °C -11.2 °C 34418.7 hPa NNW 33.6 km/h 33.6 km/h 91 % 0 mm 0.0 W/m2 CLR
02:08 -10.4 °C -11.2 °C 34418.7 hPa NW 41.7 km/h 41.7 km/h 91 % 0 mm 0.0 W/m2 CLR
02:13 -10.4 °C -11.2 °C 34418.7 hPa NW 44.7 km/h 44.7 km/h 91 % 0 mm 0.0 W/m2 CLR
02:18 -10.4 °C -11.3 °C 34418.7 hPa WNW 35.7 km/h 35.7 km/h 90 % 0 mm 0.0 W/m2 CLR
02:23 -10.4 °C -11.3 °C 34418.7 hPa NW 54.4 km/h 54.4 km/h 90 % 0 mm 0.0 W/m2 CLR
02:28 -10.4 °C -11.3 °C 34418.7 hPa WNW 54.4 km/h 54.4 km/h 90 % 0 mm 0.0 W/m2 CLR
02:33 -10.5 °C -11.4 °C 34418.7 hPa WNW 49.2 km/h 49.2 km/h 90 % 0 mm 0.0 W/m2 CLR
02:38 -10.5 °C -11.4 °C 34418.7 hPa West 41.7 km/h 41.7 km/h 90 % 0 mm 0.0 W/m2 CLR
02:43 -10.5 °C -11.4 °C 34418.7 hPa West 53.6 km/h 53.6 km/h 90 % 0 mm 0.0 W/m2 CLR
02:48 -10.5 °C -11.4 °C 34418.7 hPa WNW 50.7 km/h 50.7 km/h 90 % 0 mm 0.0 W/m2 CLR
02:53 -10.5 °C -11.4 °C 34418.7 hPa WNW 31.1 km/h 31.1 km/h 90 % 0 mm 0.0 W/m2 CLR
02:58 -10.6 °C -11.4 °C 34418.7 hPa NW 38.8 km/h 38.8 km/h 90 % 0 mm 0.0 W/m2 CLR
03:03 -10.6 °C -11.4 °C 34428.8 hPa WNW 41.7 km/h 41.7 km/h 90 % 0 mm 0.0 W/m2 CLR
03:08 -10.6 °C -11.5 °C 34428.8 hPa West 29.8 km/h 29.8 km/h 90 % 0 mm 0.0 W/m2 CLR
03:13 -10.6 °C -11.5 °C 34428.8 hPa West 9 km/h   90 % 0 mm 0.0 W/m2 CLR
03:18 -10.6 °C -11.4 °C 34428.8 hPa Calm     91 % 0 mm 0.0 W/m2 CLR
03:23 -10.7 °C -11.4 °C 34428.8 hPa Calm     91 % 0 mm 0.0 W/m2 CLR
03:28 -10.7 °C -11.6 °C 34428.8 hPa Calm     90 % 0 mm 0.0 W/m2 CLR
03:33 -10.7 °C -11.6 °C 34428.8 hPa Calm     90 % 7.62 mm 0.0 W/m2 RA
03:38 -10.7 °C -11.6 °C 34418.7 hPa Calm     90 % 7.62 mm 0.0 W/m2 CLR
03:43 -10.6 °C -11.5 °C 34418.7 hPa Calm     90 % 7.62 mm 0.0 W/m2 CLR
03:48 -10.6 °C -11.5 °C 34418.7 hPa Calm     90 % 7.62 mm 0.0 W/m2 CLR
03:53 -10.6 °C -11.5 °C 34418.7 hPa WNW 15 km/h 15 km/h 90 % 7.62 mm 0.0 W/m2 CLR
03:58 -10.6 °C -11.5 °C 34418.7 hPa Calm     90 % 7.62 mm 0.0 W/m2 CLR
04:03 -10.6 °C -11.5 °C 34418.7 hPa Calm     90 % 7.62 mm 0.0 W/m2 CLR
04:08 -10.6 °C -11.5 °C 34418.7 hPa Calm     90 % 7.62 mm 0.0 W/m2 CLR
04:10 -10.6 °C -11.6 °C 34418.7 hPa West 17.9 km/h 17.9 km/h 89 % 7.62 mm 0.0 W/m2 CLR
04:15 -10.6 °C -11.6 °C 34418.7 hPa Calm     89 % 7.62 mm 0.0 W/m2 CLR
04:20 -10.6 °C -11.6 °C 34418.7 hPa WSW 9 km/h 9 km/h 89 % 7.62 mm 0.0 W/m2 CLR
04:25 -10.6 °C -11.6 °C 34418.7 hPa West 11.9 km/h 11.9 km/h 89 % 7.62 mm 0.0 W/m2 CLR
04:30 -10.6 °C -11.6 °C 34418.7 hPa West 29.8 km/h 29.8 km/h 89 % 7.62 mm 0.0 W/m2 CLR
04:35 -10.6 °C -11.6 °C 34418.7 hPa NW 23.8 km/h 23.8 km/h 89 % 0 mm 0.0 W/m2 CLR
04:40 -10.5 °C -11.6 °C 34405.1 hPa West 17.9 km/h 17.9 km/h 88 % 0 mm 0.0 W/m2 CLR
04:45 -10.6 °C -11.6 °C 34405.1 hPa West 38.8 km/h 38.8 km/h 88 % 0 mm 0.0 W/m2 CLR
04:50 -10.5 °C -11.6 °C 34418.7 hPa WNW 18.2 km/h 18.2 km/h 88 % 0 mm 0.0 W/m2 CLR
04:55 -10.6 °C -11.6 °C 34418.7 hPa West 15 km/h 15 km/h 88 % 0 mm 0.0 W/m2 CLR
05:00 -10.5 °C -11.6 °C 34418.7 hPa West 23.8 km/h 23.8 km/h 88 % 0 mm 0.0 W/m2 CLR
05:05 -10.5 °C -11.6 °C 34418.7 hPa SW 28.5 km/h 28.5 km/h 88 % 0 mm 0.0 W/m2 CLR
05:10 -10.5 °C -11.7 °C 34405.1 hPa West 32.8 km/h 32.8 km/h 87 % 0 mm 0.0 W/m2 CLR
05:15 -10.5 °C -11.7 °C 34405.1 hPa West 15.6 km/h 15.6 km/h 87 % 0 mm 0.0 W/m2 CLR
05:20 -10.5 °C -11.7 °C 34405.1 hPa WNW 53.6 km/h 53.6 km/h 87 % 0 mm 0.0 W/m2 CLR
05:25 -10.6 °C -11.7 °C 34405.1 hPa WNW 35.7 km/h 35.7 km/h 87 % 0 mm 0.0 W/m2 CLR
05:30 -10.6 °C -11.7 °C 34405.1 hPa NW 35.7 km/h 35.7 km/h 87 % 0 mm 0.0 W/m2 CLR
05:35 -10.6 °C -11.8 °C 34405.1 hPa West 38.8 km/h 38.8 km/h 87 % 0 mm 0.0 W/m2 CLR
05:40 -10.6 °C -11.7 °C 34405.1 hPa WNW 41.7 km/h 41.7 km/h 87 % 0 mm 0.0 W/m2 CLR
05:45 -10.6 °C -11.7 °C 34405.1 hPa WNW 47.6 km/h 47.6 km/h 87 % 0 mm 0.0 W/m2 CLR
05:50 -10.6 °C -11.8 °C 34395 hPa West 44.1 km/h 44.1 km/h 86 % 0 mm 0.0 W/m2 CLR
05:55 -10.6 °C -11.8 °C 34395 hPa NW 35.7 km/h 35.7 km/h 86 % 0 mm 0.0 W/m2 CLR
06:00 -10.6 °C -11.8 °C 34405.1 hPa WNW 32.8 km/h 32.8 km/h 86 % 0 mm 0.0 W/m2 CLR
06:05 -10.6 °C -11.8 °C 34405.1 hPa WNW 44.7 km/h 44.7 km/h 86 % 0 mm 0.0 W/m2 CLR
06:06 -10.6 °C -11.8 °C 34405.1 hPa West 29.8 km/h 29.8 km/h 86 % 0 mm 0.0 W/m2 CLR
06:11 -10.6 °C -11.8 °C 34405.1 hPa WNW 38.8 km/h 38.8 km/h 86 % 0 mm 0.0 W/m2 CLR
06:16 -10.6 °C -11.8 °C 34405.1 hPa West 29.8 km/h 29.8 km/h 86 % 0 mm 0.0 W/m2 CLR
06:21 -10.6 °C -11.8 °C 34405.1 hPa West 35.7 km/h 35.7 km/h 86 % 0 mm 0.0 W/m2 OVC
06:26 -10.6 °C -11.8 °C 34405.1 hPa West 35.7 km/h 35.7 km/h 86 % 0 mm 0.0 W/m2 OVC
06:31 -10.6 °C -11.8 °C 34405.1 hPa WNW 35.7 km/h 35.7 km/h 86 % 0 mm 0.0 W/m2 OVC
06:36 -10.6 °C -11.8 °C 34405.1 hPa WNW 35.7 km/h 35.7 km/h 86 % 0 mm 0.0 W/m2 OVC
06:41 -10.6 °C -11.8 °C 34418.7 hPa West 20.9 km/h 20.9 km/h 86 % 0 mm 0.0 W/m2 OVC
06:46 -10.6 °C -11.8 °C 34418.7 hPa WSW 23.3 km/h 23.3 km/h 86 % 0 mm 7.0 W/m2 BKN
06:51 -10.6 °C -11.8 °C 34418.7 hPa West 11.9 km/h 11.9 km/h 86 % 0 mm 11.0 W/m2 BKN
06:56 -10.6 °C -11.8 °C 34418.7 hPa West 26.9 km/h 26.9 km/h 86 % 0 mm 14.0 W/m2 BKN
07:01 -10.6 °C -11.9 °C 34418.7 hPa West 15 km/h 15 km/h 85 % 0 mm 12.0 W/m2 BKN
07:06 -10.5 °C -11.9 °C 34418.7 hPa West 26.9 km/h 26.9 km/h 85 % 0 mm 12.0 W/m2 BKN
07:11 -10.5 °C -11.9 °C 34418.7 hPa West 9 km/h 9 km/h 85 % 0 mm 12.0 W/m2 BKN
07:16 -10.5 °C -11.9 °C 34428.8 hPa West 23.8 km/h 23.8 km/h 85 % 0 mm 16.0 W/m2 BKN
07:21 -10.5 °C -11.9 °C 34428.8 hPa WNW 32.8 km/h 32.8 km/h 85 % 0 mm 18.0 W/m2 BKN
07:26 -10.5 °C -11.8 °C 34428.8 hPa WNW 9 km/h 9 km/h 85 % 0 mm 23.0 W/m2 BKN
07:31 -10.5 °C -11.8 °C 34428.8 hPa WNW 9 km/h 9 km/h 85 % 0 mm 23.0 W/m2 BKN
07:36 -10.5 °C -11.8 °C 34428.8 hPa West 6 km/h 6 km/h 85 % 0 mm 26.0 W/m2 BKN
07:41 -10.5 °C -11.8 °C 34428.8 hPa West 20.8 km/h 20.8 km/h 85 % 0 mm 35.0 W/m2 BKN
07:46 -10.5 °C -11.8 °C 34428.8 hPa WNW 15.6 km/h 15.6 km/h 85 % 0 mm 39.0 W/m2 BKN
07:51 -10.5 °C -11.8 °C 34428.8 hPa WNW 9 km/h 9 km/h 85 % 0 mm 44.0 W/m2 BKN
07:52 -10.4 °C -11.8 °C 34428.8 hPa WSW 5.1 km/h 5.1 km/h 85 % 0 mm 51.0 W/m2 BKN
07:57 -10.4 °C -11.8 °C 34428.8 hPa West 41.7 km/h 41.7 km/h 85 % 0 mm 60.0 W/m2 SCT
08:02 -10.4 °C -11.8 °C 34428.8 hPa WNW 32.8 km/h 32.8 km/h 85 % 0 mm 62.0 W/m2 SCT
08:07 -10.4 °C -11.8 °C 34428.8 hPa WSW 38.8 km/h 38.8 km/h 85 % 0 mm 63.0 W/m2 SCT
08:12 -10.4 °C -11.8 °C 34428.8 hPa WSW 20.9 km/h 20.9 km/h 85 % 0 mm 76.0 W/m2 FEW
08:17 -10.4 °C -11.9 °C 34418.7 hPa West 32.8 km/h 32.8 km/h 84 % 0 mm 93.0 W/m2 FEW
08:22 -10.4 °C -11.8 °C 34428.8 hPa WSW 38.8 km/h 38.8 km/h 84 % 0 mm 107.0 W/m2 CLR
08:27 -10.3 °C -11.8 °C 34428.8 hPa WSW 38.8 km/h 38.8 km/h 84 % 0 mm 107.0 W/m2 CLR
08:32 -10.3 °C -11.8 °C 34428.8 hPa West 32.8 km/h 32.8 km/h 84 % 0 mm 107.0 W/m2 CLR
08:37 -10.3 °C -11.8 °C 34428.8 hPa NW 29.8 km/h 29.8 km/h 84 % 0 mm 111.0 W/m2 CLR
08:42 -10.2 °C -11.8 °C 34428.8 hPa West 15 km/h 15 km/h 83 % 0 mm 116.0 W/m2 CLR
08:47 -10.2 °C -11.8 °C 34428.8 hPa WNW 29.8 km/h 29.8 km/h 83 % 0 mm 113.0 W/m2 CLR
08:52 -10.2 °C -11.8 °C 34442.4 hPa West 9 km/h 9 km/h 83 % 0 mm 107.0 W/m2 CLR
08:57 -10.2 °C -11.7 °C 34442.4 hPa WNW 9 km/h   83 % 0 mm 97.0 W/m2 CLR
09:02 -10.1 °C -11.6 °C 34442.4 hPa Calm   1 km/h 84 % 0 mm 90.0 W/m2 CLR
09:07 -10.1 °C -11.7 °C 34442.4 hPa West 17.9 km/h 17.9 km/h 83 % 0 mm 88.0 W/m2 CLR
09:12 -10.1 °C -11.6 °C 34442.4 hPa WNW 11.9 km/h 11.9 km/h 83 % 0 mm 100.0 W/m2 CLR
09:17 -10.1 °C -11.6 °C 34452.6 hPa WSW 9 km/h 9 km/h 83 % 0 mm 123.0 W/m2 CLR
09:22 -10 °C -11.6 °C 34452.6 hPa WNW 9 km/h   83 % 0 mm 134.0 W/m2 CLR
09:27 -9.9 °C -11.5 °C 34452.6 hPa West 33.6 km/h 33.6 km/h 83 % 0 mm 151.0 W/m2 CLR
09:32 -9.9 °C -11.6 °C 34452.6 hPa NW 17.9 km/h 17.9 km/h 82 % 0 mm 153.0 W/m2 CLR
09:37 -9.8 °C -11.6 °C 34452.6 hPa West 12.9 km/h 12.9 km/h 82 % 0 mm 169.0 W/m2 CLR
09:42 -9.8 °C -11.6 °C 34452.6 hPa West 15 km/h 15 km/h 81 % 0 mm 160.0 W/m2 CLR
09:47 -9.7 °C -11.5 °C 34452.6 hPa WNW 11.9 km/h 11.9 km/h 81 % 0 mm 172.0 W/m2 CLR
09:52 -9.7 °C -11.4 °C 34452.6 hPa West 26.9 km/h 26.9 km/h 81 % 0 mm 216.0 W/m2 CLR
09:57 -9.6 °C -11.5 °C 34452.6 hPa West 29.8 km/h 29.8 km/h 80 % 0 mm 397.0 W/m2 CLR
10:02 -9.5 °C -11.5 °C 34452.6 hPa West 41.7 km/h 41.7 km/h 79 % 0 mm 318.0 W/m2 CLR
10:07 -9.4 °C -11.3 °C 34452.6 hPa WNW 29.8 km/h 29.8 km/h 80 % 0 mm 394.0 W/m2 CLR
10:12 -9.3 °C -11.2 °C 34452.6 hPa WNW 25.9 km/h 25.9 km/h 80 % 0 mm 313.0 W/m2 CLR
10:17 -9.2 °C -11.2 °C 34452.6 hPa WNW 38.8 km/h 38.8 km/h 80 % 0 mm 388.0 W/m2 CLR
10:22 -9.2 °C -11.2 °C 34442.4 hPa WNW 32.8 km/h 32.8 km/h 79 % 0 mm 313.0 W/m2 CLR
10:27 -9.1 °C -11.1 °C 34442.4 hPa WNW 46.7 km/h 46.7 km/h 79 % 0 mm 283.0 W/m2 CLR
10:32 -9.1 °C -11.3 °C 34452.6 hPa WNW 31.1 km/h 31.1 km/h 78 % 0 mm 338.0 W/m2 CLR
10:37 -9.1 °C -11.2 °C 34452.6 hPa West 29.8 km/h 29.8 km/h 78 % 0 mm 318.0 W/m2 CLR
10:42 -9 °C -11.2 °C 34452.6 hPa West 33.6 km/h 33.6 km/h 77 % 0 mm 304.0 W/m2 CLR
10:47 -9 °C -11.2 °C 34452.6 hPa NW 38.8 km/h 38.8 km/h 77 % 0 mm 341.0 W/m2 CLR
10:52 -8.9 °C -11 °C 34452.6 hPa WNW 44.1 km/h 44.1 km/h 78 % 0 mm 404.0 W/m2 CLR
10:57 -8.8 °C -11.2 °C 34452.6 hPa WNW 38.8 km/h 38.8 km/h 76 % 0 mm 373.0 W/m2 CLR
11:02 -8.8 °C -11.1 °C 34452.6 hPa NW 41.7 km/h 41.7 km/h 76 % 0 mm 299.0 W/m2 CLR
11:08 -8.8 °C -11.2 °C 34452.6 hPa NW 49.2 km/h 49.2 km/h 76 % 0 mm 255.0 W/m2 CLR
11:13 -8.8 °C -11.2 °C 34452.6 hPa NNW 36.2 km/h 36.2 km/h 76 % 0 mm 211.0 W/m2 CLR
11:18 -8.8 °C -11.1 °C 34462.7 hPa WNW 44.7 km/h 44.7 km/h 76 % 0 mm 251.0 W/m2 CLR
11:23 -8.7 °C -11 °C 34462.7 hPa NW 35.7 km/h 35.7 km/h 77 % 0 mm 239.0 W/m2 CLR
11:28 -8.7 °C -11.1 °C 34462.7 hPa NW 29.8 km/h 29.8 km/h 76 % 0 mm 234.0 W/m2 CLR
11:33 -8.7 °C -11 °C 34462.7 hPa WNW 41.7 km/h 41.7 km/h 76 % 0 mm 251.0 W/m2 CLR
11:38 -8.7 °C -11.2 °C 34462.7 hPa WNW 38.8 km/h 38.8 km/h 75 % 0 mm 234.0 W/m2 CLR
11:43 -8.7 °C -11.2 °C 34462.7 hPa NNW 41.7 km/h 41.7 km/h 75 % 0 mm 237.0 W/m2 CLR
11:48 -8.7 °C -11.1 °C 34462.7 hPa NNW 32.8 km/h 32.8 km/h 75 % 0 mm 211.0 W/m2 CLR
11:53 -8.6 °C -11.2 °C 34462.7 hPa North 29.8 km/h 29.8 km/h 74 % 0 mm 292.0 W/m2 CLR
11:58 -8.5 °C -11.1 °C 34462.7 hPa NW 26.9 km/h 26.9 km/h 74 % 0 mm 306.0 W/m2 CLR
12:03 -8.4 °C -11 °C 34452.6 hPa NW 32.8 km/h 32.8 km/h 74 % 0 mm 290.0 W/m2 CLR
12:08 -8.4 °C -10.9 °C 34452.6 hPa West 15 km/h 15 km/h 74 % 0 mm 427.0 W/m2 CLR
12:13 -8.2 °C -10.9 °C 34452.6 hPa NW 15 km/h 15 km/h 73 % 0 mm 489.0 W/m2 CLR
12:18 -8.1 °C -10.9 °C 34452.6 hPa NW 29.8 km/h 29.8 km/h 72 % 0 mm 362.0 W/m2 CLR
12:23 -8.1 °C -10.9 °C 34442.4 hPa WNW 23.8 km/h 23.8 km/h 72 % 0 mm 394.0 W/m2 CLR
12:28 -7.9 °C -10.7 °C 34442.4 hPa WNW 23.8 km/h 23.8 km/h 73 % 0 mm 427.0 W/m2 CLR
12:33 -7.8 °C -10.8 °C 34442.4 hPa West 29.8 km/h 29.8 km/h 71 % 0 mm 487.0 W/m2 CLR
12:38 -7.9 °C -10.9 °C 34442.4 hPa WSW 32.8 km/h 32.8 km/h 71 % 0 mm 385.0 W/m2 CLR
12:43 -7.9 °C -10.9 °C 34442.4 hPa WNW 11.9 km/h 11.9 km/h 71 % 0 mm 374.0 W/m2 CLR
12:48 -7.8 °C -10.8 °C 34442.4 hPa NW 20.9 km/h 20.9 km/h 71 % 0 mm 418.0 W/m2 CLR
12:53 -7.7 °C -10.8 °C 34442.4 hPa NW 32.8 km/h 32.8 km/h 70 % 0 mm 580.0 W/m2 CLR
12:58 -7.6 °C -10.7 °C 34428.8 hPa NW 29.8 km/h 29.8 km/h 70 % 0 mm 499.0 W/m2 CLR
13:03 -7.6 °C -10.8 °C 34428.8 hPa West 29.8 km/h 29.8 km/h 69 % 0 mm 508.0 W/m2 CLR
13:08 -7.5 °C -10.7 °C 34428.8 hPa WNW 28.5 km/h 28.5 km/h 69 % 0 mm 589.0 W/m2 CLR
13:13 -7.4 °C -10.8 °C 34428.8 hPa WNW 17.9 km/h 17.9 km/h 68 % 0 mm 571.0 W/m2 CLR
13:18 -7.3 °C -10.7 °C 34428.8 hPa NW 32.8 km/h 32.8 km/h 68 % 0 mm 766.0 W/m2 CLR
13:23 -7.2 °C -10.7 °C 34418.7 hPa WNW 29.8 km/h 29.8 km/h 67 % 0 mm 624.0 W/m2 CLR
13:24 -7.2 °C -10.8 °C 34418.7 hPa WNW 15 km/h 15 km/h 66 % 0 mm 686.0 W/m2 CLR
13:29 -7.1 °C -10.5 °C 34418.7 hPa NW 29.8 km/h 29.8 km/h 67 % 0 mm 642.0 W/m2 CLR
13:44 -6.8 °C -10.4 °C 34405.1 hPa WNW 15 km/h 15 km/h 66 % 0 mm 499.0 W/m2 CLR
13:49 -6.7 °C -10.6 °C 34405.1 hPa West 9 km/h 9 km/h 64 % 0 mm 870.0 W/m2 CLR
13:54 -6.7 °C -10.4 °C 34405.1 hPa WNW 11.9 km/h 11.9 km/h 66 % 0 mm 642.0 W/m2 CLR
13:59 -6.6 °C -10.3 °C 34405.1 hPa WNW 11.9 km/h 11.9 km/h 65 % 0 mm 1174.0 W/m2 CLR
14:04 -6.6 °C -10.4 °C 34405.1 hPa Calm     64 % 0 mm 1125.0 W/m2 CLR
14:09 -6.3 °C -10.4 °C 34405.1 hPa WNW 23.8 km/h 23.8 km/h 63 % 0 mm 1053.0 W/m2 CLR
14:14 -6.3 °C -10.5 °C 34405.1 hPa WSW 20.9 km/h 20.9 km/h 62 % 0 mm 1236.0 W/m2 CLR
14:19 -6.3 °C -10.4 °C 34395 hPa Calm     62 % 0 mm 376.0 W/m2 CLR
14:24 -6.2 °C -10.3 °C 34395 hPa NNW 11.9 km/h 11.9 km/h 63 % 0 mm 353.0 W/m2 CLR
14:29 -6.3 °C -10.4 °C 34395 hPa WNW 35.7 km/h 35.7 km/h 63 % 0 mm 302.0 W/m2 CLR
14:34 -6.6 °C -10.6 °C 34395 hPa WNW 17.9 km/h 17.9 km/h 63 % 0 mm 278.0 W/m2 CLR
14:39 -6.4 °C -10.2 °C 34395 hPa NW 29.8 km/h 29.8 km/h 65 % 0 mm 1158.0 W/m2 CLR
14:44 -6.4 °C -10.4 °C 34395 hPa WNW 15.6 km/h 15.6 km/h 63 % 0 mm 364.0 W/m2 CLR
14:49 -6.2 °C -10.1 °C 34395 hPa WNW 23.8 km/h 23.8 km/h 65 % 0 mm 1151.0 W/m2 CLR
14:54 -6.2 °C -10.3 °C 34395 hPa NW 20.9 km/h 20.9 km/h 63 % 0 mm 276.0 W/m2 CLR
14:59 -6.3 °C -10.4 °C 34395 hPa NNW 11.9 km/h 11.9 km/h 62 % 0 mm 1083.0 W/m2 CLR
15:04 -6.1 °C -10.4 °C 34395 hPa WNW 35.7 km/h 35.7 km/h 61 % 0 mm 1046.0 W/m2 CLR
15:09 -5.9 °C -10.2 °C 34395 hPa NNW 32.8 km/h 32.8 km/h 61 % 0 mm 1027.0 W/m2 CLR
15:10 -5.9 °C -10.2 °C 34395 hPa West 32.8 km/h 32.8 km/h 61 % 0 mm 1018.0 W/m2 CLR
15:15 -5.7 °C -9.8 °C 34384.8 hPa WSW 31.1 km/h 31.1 km/h 63 % 0 mm 1013.0 W/m2 CLR
15:20 -5.7 °C -10.5 °C 34384.8 hPa West 26.9 km/h 26.9 km/h 58 % 0 mm 979.0 W/m2 CLR
15:25 -5.6 °C -10.1 °C 34384.8 hPa WNW 18.2 km/h 18.2 km/h 60 % 0 mm 1009.0 W/m2 CLR
15:30 -5.5 °C -10.3 °C 34371.3 hPa WSW 11.9 km/h 11.9 km/h 58 % 0 mm 1020.0 W/m2 CLR
15:31 -5.5 °C -10.4 °C 34384.8 hPa WNW 15 km/h 15 km/h 57 % 0 mm 995.0 W/m2 CLR
15:36 -5.4 °C -10.4 °C 34384.8 hPa West 9 km/h 9 km/h 57 % 0 mm 1046.0 W/m2 CLR
15:41 -5.4 °C -10.2 °C 34371.3 hPa NNW 11.9 km/h 11.9 km/h 58 % 0 mm 965.0 W/m2 CLR
15:46 -5.4 °C -10.7 °C 34371.3 hPa Calm     55 % 0 mm 227.0 W/m2 CLR
15:51 -5.6 °C -10.2 °C 34371.3 hPa West 11.9 km/h 11.9 km/h 59 % 0 mm 668.0 W/m2 CLR
15:56 -5.7 °C -10.4 °C 34371.3 hPa North 9 km/h 9 km/h 58 % 0 mm 726.0 W/m2 CLR
16:01 -5.5 °C -10.4 °C 34361.1 hPa Calm     57 % 0 mm 893.0 W/m2 CLR
16:06 -5.2 °C -10 °C 34361.1 hPa WNW 17.9 km/h 17.9 km/h 58 % 0 mm 886.0 W/m2 CLR
16:11 -5.1 °C -10.1 °C 34361.1 hPa Calm     57 % 0 mm 879.0 W/m2 CLR
16:16 -5.2 °C -10.7 °C 34361.1 hPa Calm     53 % 0 mm 942.0 W/m2 CLR
16:21 -5.2 °C -10.8 °C 34361.1 hPa Calm     53 % 0 mm 918.0 W/m2 CLR
16:26 -5.1 °C -10.2 °C 34361.1 hPa NW 20.9 km/h 20.9 km/h 56 % 0 mm 916.0 W/m2 CLR
16:31 -5.1 °C -10.6 °C 34347.6 hPa North 3.1 km/h 3.1 km/h 54 % 0 mm 171.0 W/m2 CLR
16:36 -5.2 °C -10.6 °C 34347.6 hPa Calm     54 % 0 mm 213.0 W/m2 CLR
16:41 -5.2 °C -10.4 °C 34347.6 hPa Calm     55 % 0 mm 253.0 W/m2 CLR
16:46 -5.1 °C -10.7 °C 34337.4 hPa Calm     53 % 0 mm 923.0 W/m2 CLR
16:51 -4.9 °C -10.4 °C 34337.4 hPa Calm     54 % 0 mm 921.0 W/m2 CLR
16:56 -4.7 °C -10.3 °C 34337.4 hPa West 15.6 km/h 15.6 km/h 53 % 0 mm 898.0 W/m2 CLR
17:01 -4.6 °C -10.6 °C 34337.4 hPa NW 6 km/h 6 km/h 51 % 0 mm 877.0 W/m2 CLR
17:06 -4.6 °C -10.7 °C 34337.4 hPa West 23.3 km/h 23.3 km/h 50 % 0 mm 823.0 W/m2 CLR
17:11 -4.7 °C -10.4 °C 34337.4 hPa NW 26.9 km/h 26.9 km/h 52 % 0 mm 786.0 W/m2 CLR
17:16 -4.6 °C -10.8 °C 34337.4 hPa WNW 20.9 km/h 20.9 km/h 50 % 0 mm 752.0 W/m2 CLR
17:21 -4.6 °C -10.4 °C 34337.4 hPa WNW 11.9 km/h 11.9 km/h 52 % 0 mm 717.0 W/m2 CLR
17:26 -4.6 °C -10.3 °C 34337.4 hPa Calm     52 % 0 mm 686.0 W/m2 CLR
17:31 -4.4 °C -10.9 °C 34337.4 hPa WNW 26.9 km/h 26.9 km/h 48 % 0 mm 666.0 W/m2 CLR
17:32 -4.4 °C -10.9 °C 34337.4 hPa West 28.5 km/h 28.5 km/h 48 % 0 mm 666.0 W/m2 CLR
17:37 -4.6 °C -10.8 °C 34337.4 hPa West 18.2 km/h 18.2 km/h 50 % 0 mm 656.0 W/m2 CLR
17:42 -4.8 °C -10.8 °C 34337.4 hPa NW 15.6 km/h 15.6 km/h 51 % 0 mm 174.0 W/m2 CLR
17:47 -4.8 °C -10.9 °C 34327.3 hPa Calm     50 % 0 mm 689.0 W/m2 CLR
17:52 -4.6 °C -10.3 °C 34327.3 hPa NNE 23.8 km/h 23.8 km/h 53 % 0 mm 642.0 W/m2 CLR
17:57 -4.6 °C -10.6 °C 34327.3 hPa NNW 15 km/h 15 km/h 51 % 0 mm 578.0 W/m2 CLR
18:02 -4.6 °C -10.9 °C 34327.3 hPa WNW 15.6 km/h 15.6 km/h 49 % 0 mm 578.0 W/m2 CLR
18:07 -4.5 °C -10.8 °C 34327.3 hPa WSW 9 km/h 9 km/h 49 % 0 mm 555.0 W/m2 CLR
18:12 -4.5 °C -10.7 °C 34313.7 hPa North 9 km/h 9 km/h 50 % 0 mm 536.0 W/m2 CLR
18:17 -4.5 °C -11.2 °C 34313.7 hPa NW 9 km/h   47 % 0 mm 510.0 W/m2 CLR
18:22 -4.5 °C -10.6 °C 34313.7 hPa Calm     50 % 0 mm 492.0 W/m2 CLR
18:27 -4.4 °C -10.9 °C 34313.7 hPa Calm     48 % 0 mm 492.0 W/m2 CLR
18:32 -4.3 °C -10.7 °C 34303.6 hPa NW 20.9 km/h 20.9 km/h 49 % 0 mm 225.0 W/m2 CLR
18:37 -4.4 °C -10.6 °C 34303.6 hPa NW 26.9 km/h 26.9 km/h 50 % 0 mm 446.0 W/m2 CLR
18:42 -4.4 °C -10.4 °C 34303.6 hPa WNW 11.9 km/h 11.9 km/h 51 % 0 mm 431.0 W/m2 CLR
18:47 -4.3 °C -10.9 °C 34303.6 hPa Calm     48 % 0 mm 413.0 W/m2 CLR
18:48 -4.3 °C -10.7 °C 34303.6 hPa Calm     49 % 0 mm 410.0 W/m2 CLR
18:53 -4.2 °C -10.7 °C 34303.6 hPa NW 10.3 km/h 10.3 km/h 48 % 0 mm 397.0 W/m2 CLR
18:58 -4.2 °C -10.9 °C 34303.6 hPa NW 18.2 km/h 18.2 km/h 47 % 0 mm 383.0 W/m2 CLR
19:03 -4.3 °C -10.8 °C 34303.6 hPa West 11.9 km/h 11.9 km/h 48 % 0 mm 371.0 W/m2 CLR
19:08 -4.3 °C -11 °C 34303.6 hPa NNW 5.1 km/h 5.1 km/h 47 % 0 mm 350.0 W/m2 CLR
19:13 -4.2 °C -10.5 °C 34303.6 hPa Calm     49 % 0 mm 334.0 W/m2 CLR
19:18 -4.2 °C -10.7 °C 34303.6 hPa Calm     48 % 0 mm 320.0 W/m2 CLR
19:28 -4.3 °C -11 °C 34303.6 hPa North 9 km/h   47 % 0 mm 287.0 W/m2 CLR
19:33 -4.3 °C -11 °C 34303.6 hPa Calm     47 % 0 mm 267.0 W/m2 CLR
19:38 -4.3 °C -10.8 °C 34303.6 hPa Calm     48 % 0 mm 257.0 W/m2 CLR
19:43 -4.3 °C -11.2 °C 34303.6 hPa Calm     46 % 0 mm 216.0 W/m2 CLR
19:48 -4.3 °C -11 °C 34303.6 hPa North 15 km/h 15 km/h 47 % 0 mm 216.0 W/m2 CLR
19:53 -4.4 °C -11.2 °C 34303.6 hPa Calm     46 % 0 mm 199.0 W/m2 CLR
19:58 -4.5 °C -11.2 °C 34303.6 hPa WNW 9 km/h 9 km/h 47 % 0 mm 176.0 W/m2 CLR
20:03 -4.5 °C -11.5 °C 34303.6 hPa Calm     45 % 0 mm 123.0 W/m2 CLR
20:08 -4.4 °C -11.1 °C 34303.6 hPa WNW 9 km/h 9 km/h 47 % 0 mm 111.0 W/m2 CLR
20:13 -4.6 °C -11.6 °C 34303.6 hPa NNW 11.9 km/h 11.9 km/h 45 % 0 mm 81.0 W/m2 CLR
20:18 -4.7 °C -11.3 °C 34303.6 hPa Calm     47 % 0 mm 128.0 W/m2 CLR
20:23 -4.7 °C -11.2 °C 34303.6 hPa Calm     48 % 0 mm 118.0 W/m2 CLR
20:24 -4.7 °C -11.2 °C 34303.6 hPa Calm     48 % 0 mm 114.0 W/m2 CLR
20:29 -4.6 °C -11.4 °C 34303.6 hPa Calm     46 % 0 mm 88.0 W/m2 CLR
20:34 -4.6 °C -11.3 °C 34303.6 hPa Calm     47 % 0 mm 86.0 W/m2 CLR
20:39 -4.8 °C -11.2 °C 34293.4 hPa Calm     48 % 0 mm 62.0 W/m2 SCT
20:44 -4.9 °C -11.2 °C 34293.4 hPa Calm     49 % 0 mm 44.0 W/m2 BKN
20:49 -5.1 °C -11.2 °C 34293.4 hPa Calm     50 % 0 mm 35.0 W/m2 BKN
20:54 -5.1 °C -10.7 °C 34293.4 hPa Calm     53 % 0 mm 28.0 W/m2 BKN
21:04 -5.4 °C -10.4 °C 34293.4 hPa Calm     57 % 0 mm 19.0 W/m2 BKN
21:09 -5.7 °C -10.9 °C 34293.4 hPa Calm     55 % 0 mm 16.0 W/m2 BKN
21:14 -5.8 °C -11.2 °C 34303.6 hPa Calm     54 % 0 mm 12.0 W/m2 BKN
21:19 -5.9 °C -11.2 °C 34303.6 hPa Calm     55 % 0 mm 11.0 W/m2 BKN
21:24 -6 °C -11.2 °C 34303.6 hPa Calm     55 % 0 mm 7.0 W/m2 BKN
21:29 -6.1 °C -11.2 °C 34303.6 hPa Calm     56 % 0 mm 5.0 W/m2 OVC
21:34 -6.2 °C -10.9 °C 34303.6 hPa Calm     58 % 0 mm 0.0 W/m2 OVC
21:39 -6.3 °C -10.9 °C 34303.6 hPa Calm     59 % 0 mm 0.0 W/m2 CLR
21:44 -6.3 °C -10.8 °C 34303.6 hPa Calm     60 % 0 mm 0.0 W/m2 CLR
21:49 -6.5 °C -10.2 °C 34303.6 hPa Calm     65 % 0 mm 0.0 W/m2 CLR
21:54 -6.7 °C -10.2 °C 34303.6 hPa Calm     67 % 0 mm 0.0 W/m2 CLR
21:59 -6.9 °C -10.2 °C 34303.6 hPa Calm     69 % 0 mm 0.0 W/m2 CLR
22:04 -7.1 °C -10.2 °C 34303.6 hPa Calm     70 % 0 mm 0.0 W/m2 CLR
22:09 -7.3 °C -10.6 °C 34303.6 hPa Calm     69 % 0 mm 0.0 W/m2 CLR
22:14 -7.4 °C -10.5 °C 34303.6 hPa Calm     70 % 0 mm 0.0 W/m2 CLR
22:19 -7.6 °C -10.5 °C 34313.7 hPa Calm     71 % 0 mm 0.0 W/m2 CLR
22:24 -7.6 °C -10.2 °C 34313.7 hPa Calm     74 % 0 mm 0.0 W/m2 CLR
22:29 -7.8 °C -10.2 °C 34313.7 hPa Calm     76 % 0 mm 0.0 W/m2 CLR
22:34 -8 °C -10.6 °C 34327.3 hPa Calm     74 % 0 mm 0.0 W/m2 CLR
22:39 -8.1 °C -10.3 °C 34327.3 hPa Calm     77 % 0 mm 0.0 W/m2 CLR
22:44 -8.2 °C -10.4 °C 34327.3 hPa Calm     78 % 0 mm 0.0 W/m2 CLR
22:49 -8.4 °C -10.4 °C 34327.3 hPa Calm     79 % 0 mm 0.0 W/m2 CLR
22:54 -8.5 °C -10.4 °C 34327.3 hPa Calm     80 % 0 mm 0.0 W/m2 CLR
22:59 -8.6 °C -10.5 °C 34327.3 hPa Calm     80 % 0 mm 0.0 W/m2 CLR
23:04 -8.7 °C -10.6 °C 34313.7 hPa Calm     80 % 0 mm 0.0 W/m2 CLR
23:09 -8.7 °C -10.5 °C 34313.7 hPa Calm     81 % 0 mm 0.0 W/m2 CLR
23:14 -8.7 °C -10.4 °C 34313.7 hPa Calm     82 % 0 mm 0.0 W/m2 CLR
23:19 -8.8 °C -10.5 °C 34313.7 hPa Calm     82 % 0 mm 0.0 W/m2 CLR
23:24 -8.9 °C -10.5 °C 34313.7 hPa Calm     83 % 0 mm 0.0 W/m2 CLR
23:29 -9 °C -10.6 °C 34313.7 hPa Calm     83 % 0 mm 0.0 W/m2 CLR
23:34 -8.9 °C -10.7 °C 34313.7 hPa Calm     81 % 0 mm 0.0 W/m2 CLR
23:39 -8.8 °C -10.7 °C 34313.7 hPa Calm     80 % 0 mm 0.0 W/m2 CLR
23:44 -8.7 °C -10.7 °C 34313.7 hPa Calm     80 % 0 mm 0.0 W/m2 CLR
23:49 -8.8 °C -10.8 °C 34313.7 hPa Calm     79 % 0 mm 0.0 W/m2 CLR
23:54 -8.8 °C -10.7 °C 34313.7 hPa Calm     80 % 0 mm 0.0 W/m2 CLR
23:59 -8.9 °C -10.7 °C 34303.6 hPa Calm     81 % 0 mm 0.0 W/m2 CLR
Lo Temps de Massalio
Compliments of Weather Underground - 1.25 mb